Flugplatz Meppe Airport

Bericht für ETWM

vom 25.10. um 16:20 UTC

Wind 3 kt aus 180°

Temperatur 11.0°C

Taupunkt 10.0°C

Luftfeuchtigkeit 94%

Luftdruck 1015 hPa

ETWM 251620Z AUTO 18003KT //// // ////// 11/10 Q1015 ///
Keine Prognose (TAF) verfügbar.
Impressum